createdAt,value
2023-06-04T00:00:03.857Z,15.31
2023-06-04T00:01:03.894Z,15.35
2023-06-04T00:02:03.816Z,15.43
2023-06-04T00:03:03.923Z,15.38
2023-06-04T00:04:03.908Z,15.42
2023-06-04T00:05:03.804Z,15.48
2023-06-04T00:06:03.772Z,15.43
2023-06-04T00:07:03.770Z,15.42
2023-06-04T00:08:03.765Z,15.48
2023-06-04T00:09:03.734Z,15.46
2023-06-04T00:10:03.727Z,15.42
2023-06-04T00:11:03.865Z,15.42
2023-06-04T00:12:03.714Z,15.39
2023-06-04T00:13:03.706Z,15.43
2023-06-04T00:14:03.679Z,15.51
2023-06-04T00:15:06.053Z,15.42
2023-06-04T00:16:03.692Z,15.51
2023-06-04T00:17:03.894Z,15.49
2023-06-04T00:18:03.661Z,15.46
2023-06-04T00:19:03.621Z,15.51
2023-06-04T00:20:03.635Z,15.45
2023-06-04T00:21:03.611Z,15.46
2023-06-04T00:22:03.627Z,15.45
2023-06-04T00:23:03.585Z,15.39
2023-06-04T00:24:03.738Z,15.30
2023-06-04T00:25:03.556Z,15.38
2023-06-04T00:26:03.569Z,15.31
2023-06-04T00:27:03.560Z,15.28
2023-06-04T00:28:03.524Z,15.24
2023-06-04T00:29:03.519Z,15.26
2023-06-04T00:30:03.499Z,15.24
2023-06-04T00:31:03.615Z,15.26
2023-06-04T00:32:03.524Z,15.24
2023-06-04T00:33:03.493Z,15.12
2023-06-04T00:34:03.457Z,15.01
2023-06-04T00:35:03.450Z,14.94
2023-06-04T00:36:03.471Z,14.74
2023-06-04T00:37:03.439Z,14.67
2023-06-04T00:38:03.432Z,14.52
2023-06-04T00:39:03.404Z,14.46
2023-06-04T00:40:03.386Z,14.49
2023-06-04T00:41:03.387Z,14.46
2023-06-04T00:42:03.392Z,14.34
2023-06-04T00:43:03.356Z,14.38
2023-06-04T00:44:03.371Z,14.39
2023-06-04T00:45:03.336Z,14.47
2023-06-04T00:46:03.387Z,14.46
2023-06-04T00:47:03.329Z,14.50
2023-06-04T00:48:03.343Z,14.61
2023-06-04T00:49:03.291Z,14.62
2023-06-04T00:50:03.301Z,14.74
2023-06-04T00:51:03.268Z,14.60
2023-06-04T00:52:03.256Z,14.71
2023-06-04T00:53:03.246Z,14.61
2023-06-04T00:54:03.258Z,14.78
2023-06-04T00:55:03.264Z,14.72
2023-06-04T00:56:03.211Z,14.69
2023-06-04T00:57:03.200Z,14.74
2023-06-04T00:58:03.198Z,14.75
2023-06-04T00:59:03.211Z,14.81
2023-06-04T01:00:03.192Z,14.84
2023-06-04T01:01:03.215Z,14.81
2023-06-04T01:02:03.143Z,14.72
2023-06-04T01:03:03.168Z,14.72
2023-06-04T01:04:03.267Z,14.65
2023-06-04T01:05:03.119Z,14.74
2023-06-04T01:06:03.109Z,14.75
2023-06-04T01:07:03.117Z,14.69
2023-06-04T01:08:03.108Z,14.67
2023-06-04T01:09:03.084Z,14.65
2023-06-04T01:10:03.059Z,14.65
2023-06-04T01:11:03.048Z,14.69
2023-06-04T01:12:03.039Z,14.61
2023-06-04T01:13:03.058Z,14.64
2023-06-04T01:14:03.015Z,14.65
2023-06-04T01:15:03.013Z,14.71
2023-06-04T01:16:02.988Z,14.71
2023-06-04T01:17:03.097Z,14.64
2023-06-04T01:18:03.056Z,14.67
2023-06-04T01:19:02.965Z,14.61
2023-06-04T01:20:02.946Z,14.69
2023-06-04T01:21:02.935Z,14.67
2023-06-04T01:22:02.945Z,14.68
2023-06-04T01:23:02.950Z,14.69
2023-06-04T01:24:03.003Z,14.68
2023-06-04T01:25:02.892Z,14.52
2023-06-04T01:26:02.881Z,14.38
2023-06-04T01:27:02.903Z,14.49
2023-06-04T01:28:02.865Z,14.46
2023-06-04T01:29:02.859Z,14.42
2023-06-04T01:30:02.837Z,14.47
2023-06-04T01:31:02.891Z,14.46
2023-06-04T01:32:02.876Z,14.43
2023-06-04T01:33:02.834Z,14.43
2023-06-04T01:34:02.795Z,14.42
2023-06-04T01:35:02.784Z,14.46
2023-06-04T01:36:02.792Z,14.44
2023-06-04T01:37:02.782Z,14.49
2023-06-04T01:38:02.753Z,14.49
2023-06-04T01:39:02.736Z,14.39
2023-06-04T01:40:02.739Z,14.46
2023-06-04T01:41:02.956Z,14.44
2023-06-04T01:42:02.707Z,14.38
2023-06-04T01:43:02.719Z,14.39
2023-06-04T01:44:02.687Z,14.39
2023-06-04T01:45:02.676Z,14.37
2023-06-04T01:46:02.902Z,14.44
2023-06-04T01:47:02.653Z,14.46
2023-06-04T01:48:02.671Z,14.43
2023-06-04T01:49:02.634Z,14.44
2023-06-04T01:50:03.060Z,14.52
2023-06-04T01:51:02.761Z,14.50
2023-06-04T01:52:02.609Z,14.52
2023-06-04T01:53:02.584Z,14.53
2023-06-04T01:54:02.577Z,14.52
2023-06-04T01:55:02.596Z,14.47
2023-06-04T01:56:02.551Z,14.50
2023-06-04T01:57:02.541Z,14.49
2023-06-04T01:58:02.559Z,14.42
2023-06-04T01:59:02.521Z,14.37
2023-06-04T02:00:02.525Z,14.28
2023-06-04T02:01:02.574Z,14.20
2023-06-04T02:02:02.518Z,14.29
2023-06-04T02:03:02.524Z,14.25
2023-06-04T02:04:02.571Z,14.21
2023-06-04T02:05:02.483Z,14.24
2023-06-04T02:06:02.447Z,14.31
2023-06-04T02:07:02.579Z,14.25
2023-06-04T02:08:02.420Z,14.19
2023-06-04T02:09:02.990Z,14.31
2023-06-04T02:10:02.400Z,14.20
2023-06-04T02:11:02.403Z,14.19
2023-06-04T02:12:02.378Z,14.27
2023-06-04T02:13:02.377Z,14.32
2023-06-04T02:14:02.495Z,14.27
2023-06-04T02:15:02.396Z,14.27
2023-06-04T02:16:02.399Z,14.31
2023-06-04T02:17:02.366Z,14.27
2023-06-04T02:18:02.356Z,14.31
2023-06-04T02:19:02.364Z,14.32
2023-06-04T02:20:02.315Z,14.34
2023-06-04T02:21:02.283Z,14.37
2023-06-04T02:22:02.271Z,14.31
2023-06-04T02:23:02.321Z,14.24
2023-06-04T02:24:02.389Z,14.29
2023-06-04T02:25:02.246Z,14.28
2023-06-04T02:26:02.230Z,14.24
2023-06-04T02:27:02.347Z,14.29
2023-06-04T02:28:02.219Z,14.21
2023-06-04T02:29:02.199Z,14.21
2023-06-04T02:30:02.251Z,14.17
2023-06-04T02:31:02.451Z,14.13
2023-06-04T02:32:02.221Z,14.19
2023-06-04T02:33:02.291Z,14.27
2023-06-04T02:34:02.145Z,14.20
2023-06-04T02:35:02.132Z,14.19
2023-06-04T02:36:02.136Z,14.24
2023-06-04T02:37:02.142Z,14.16
2023-06-04T02:38:02.105Z,14.17
2023-06-04T02:39:02.116Z,14.17
2023-06-04T02:40:02.077Z,14.14
2023-06-04T02:41:02.065Z,14.14
2023-06-04T02:42:02.098Z,14.19
2023-06-04T02:43:02.048Z,14.19
2023-06-04T02:44:02.037Z,14.24
2023-06-04T02:45:02.024Z,14.20
2023-06-04T02:46:02.081Z,14.19
2023-06-04T02:47:01.998Z,14.16
2023-06-04T02:48:02.096Z,14.14
2023-06-04T02:49:02.015Z,14.16
2023-06-04T02:50:01.975Z,14.12
2023-06-04T02:51:02.001Z,14.14
2023-06-04T02:52:01.942Z,14.17
2023-06-04T02:53:01.970Z,14.17
2023-06-04T02:54:01.921Z,14.16
2023-06-04T02:55:01.910Z,14.12
2023-06-04T02:56:01.931Z,14.17
2023-06-04T02:57:01.897Z,14.13
2023-06-04T02:58:01.979Z,14.07
2023-06-04T02:59:01.870Z,14.06
2023-06-04T03:00:01.884Z,14.06
2023-06-04T03:01:02.118Z,14.17
2023-06-04T03:02:01.885Z,14.19
2023-06-04T03:03:01.886Z,14.17
2023-06-04T03:04:01.899Z,14.10
2023-06-04T03:05:01.824Z,14.06
2023-06-04T03:06:01.866Z,14.02
2023-06-04T03:07:01.782Z,14.04
2023-06-04T03:08:02.576Z,14.01
2023-06-04T03:09:01.780Z,13.94
2023-06-04T03:10:01.775Z,13.98
2023-06-04T03:11:01.738Z,14.09
2023-06-04T03:12:01.722Z,14.06
2023-06-04T03:13:01.870Z,14.10
2023-06-04T03:14:01.721Z,14.06
2023-06-04T03:15:01.694Z,14.13
2023-06-04T03:16:01.861Z,14.17
2023-06-04T03:17:01.680Z,14.07
2023-06-04T03:18:01.741Z,14.06
2023-06-04T03:19:01.701Z,14.12
2023-06-04T03:20:01.638Z,14.13
2023-06-04T03:21:02.128Z,14.13
2023-06-04T03:22:02.529Z,14.14
2023-06-04T03:23:01.607Z,14.19
2023-06-04T03:24:01.669Z,14.13
2023-06-04T03:25:01.586Z,14.02
2023-06-04T03:26:01.692Z,14.12
2023-06-04T03:27:01.601Z,14.20
2023-06-04T03:28:01.582Z,14.19
2023-06-04T03:29:01.565Z,14.21
2023-06-04T03:30:01.592Z,14.25
2023-06-04T03:31:01.537Z,14.20
2023-06-04T03:32:01.525Z,14.27
2023-06-04T03:33:01.611Z,14.27
2023-06-04T03:34:01.485Z,14.31
2023-06-04T03:35:01.483Z,14.35
2023-06-04T03:36:01.464Z,14.34
2023-06-04T03:37:01.457Z,14.44
2023-06-04T03:38:01.607Z,14.47
2023-06-04T03:39:01.430Z,14.46
2023-06-04T03:40:01.420Z,14.44
2023-06-04T03:41:01.406Z,14.42
2023-06-04T03:42:01.455Z,14.50
2023-06-04T03:43:02.038Z,14.53
2023-06-04T03:44:01.373Z,14.62
2023-06-04T03:45:01.421Z,14.67
2023-06-04T03:46:01.506Z,14.69
2023-06-04T03:47:01.426Z,14.75
2023-06-04T03:48:01.359Z,14.80
2023-06-04T03:49:01.320Z,14.95
2023-06-04T03:50:01.311Z,15.13
2023-06-04T03:51:01.304Z,15.12
2023-06-04T03:52:01.536Z,15.17
2023-06-04T03:53:01.311Z,15.30
2023-06-04T03:54:01.265Z,15.36
2023-06-04T03:55:01.262Z,15.48
2023-06-04T03:56:01.265Z,15.56
2023-06-04T03:57:01.281Z,15.61
2023-06-04T03:58:01.225Z,15.67
2023-06-04T03:59:01.210Z,15.75
2023-06-04T04:00:01.409Z,15.68
2023-06-04T04:01:01.234Z,15.78
2023-06-04T04:02:02.079Z,15.81
2023-06-04T04:03:01.262Z,15.67
2023-06-04T04:04:01.191Z,15.76
2023-06-04T04:05:01.153Z,15.84
2023-06-04T04:06:01.154Z,15.70
2023-06-04T04:07:01.169Z,15.67
2023-06-04T04:08:01.125Z,15.60
2023-06-04T04:09:01.105Z,15.59
2023-06-04T04:10:01.137Z,15.48
2023-06-04T04:11:01.115Z,15.31
2023-06-04T04:12:01.084Z,15.26
2023-06-04T04:13:01.142Z,15.01
2023-06-04T04:14:01.056Z,14.87
2023-06-04T04:15:01.140Z,14.74
2023-06-04T04:16:01.035Z,14.91
2023-06-04T04:17:01.267Z,15.13
2023-06-04T04:18:01.091Z,15.31
2023-06-04T04:19:01.007Z,15.35
2023-06-04T04:20:00.999Z,15.26
2023-06-04T04:21:01.144Z,15.36
2023-06-04T04:22:01.013Z,15.27
2023-06-04T04:23:00.952Z,15.28
2023-06-04T04:24:01.107Z,15.46
2023-06-04T04:25:00.939Z,15.39
2023-06-04T04:26:00.926Z,15.31
2023-06-04T04:27:00.899Z,15.41
2023-06-04T04:28:00.889Z,15.46
2023-06-04T04:29:01.196Z,15.52
2023-06-04T04:30:00.915Z,15.56
2023-06-04T04:31:01.071Z,15.61
2023-06-04T04:32:00.871Z,15.76
2023-06-04T04:33:00.913Z,15.89
2023-06-04T04:34:00.845Z,15.94
2023-06-04T04:35:00.822Z,15.97
2023-06-04T04:36:00.812Z,16.12
2023-06-04T04:37:00.787Z,16.25
2023-06-04T04:38:00.805Z,16.30
2023-06-04T04:39:00.783Z,16.30
2023-06-04T04:40:00.765Z,16.37
2023-06-04T04:41:00.754Z,16.34
2023-06-04T04:42:00.736Z,16.34
2023-06-04T04:43:00.743Z,16.37
2023-06-04T04:44:01.541Z,16.49
2023-06-04T04:45:00.763Z,16.45
2023-06-04T04:46:00.713Z,16.53
2023-06-04T04:47:00.977Z,16.63
2023-06-04T04:48:00.788Z,16.78
2023-06-04T04:49:00.656Z,16.80
2023-06-04T04:50:00.891Z,16.88
2023-06-04T04:51:00.693Z,16.92
2023-06-04T04:52:00.675Z,17.00
2023-06-04T04:53:00.658Z,17.06
2023-06-04T04:54:00.662Z,17.13
2023-06-04T04:55:00.596Z,17.15
2023-06-04T04:56:00.603Z,17.18
2023-06-04T04:57:12.902Z,17.18
2023-06-04T04:58:01.562Z,17.17
2023-06-04T04:59:00.551Z,17.23
2023-06-04T05:00:00.539Z,17.29
2023-06-04T05:01:00.541Z,17.33
2023-06-04T05:02:00.697Z,17.36
2023-06-04T05:03:00.551Z,17.33
2023-06-04T05:04:02.940Z,17.38
2023-06-04T05:05:00.489Z,17.38
2023-06-04T05:06:00.478Z,17.46
2023-06-04T05:07:00.474Z,17.35
2023-06-04T05:08:00.462Z,17.38
2023-06-04T05:09:00.440Z,17.33
2023-06-04T05:10:00.422Z,17.32
2023-06-04T05:11:00.436Z,17.30
2023-06-04T05:12:00.421Z,17.29
2023-06-04T05:13:00.399Z,17.30
2023-06-04T05:14:00.381Z,17.35
2023-06-04T05:15:00.374Z,17.41
2023-06-04T05:16:00.407Z,17.40
2023-06-04T05:17:00.348Z,17.46
2023-06-04T05:18:00.910Z,17.53
2023-06-04T05:19:00.510Z,17.69
2023-06-04T05:20:00.342Z,17.62
2023-06-04T05:21:00.320Z,17.67
2023-06-04T05:22:00.298Z,17.69
2023-06-04T05:23:00.286Z,17.79
2023-06-04T05:24:00.485Z,17.71
2023-06-04T05:25:00.353Z,17.73
2023-06-04T05:26:00.252Z,17.69
2023-06-04T05:27:00.367Z,17.73
2023-06-04T05:28:00.243Z,17.67
2023-06-04T05:29:00.218Z,17.70
2023-06-04T05:30:00.266Z,17.73
2023-06-04T05:31:00.370Z,17.84
2023-06-04T05:32:00.329Z,17.73
2023-06-04T05:33:00.219Z,17.66
2023-06-04T05:34:00.409Z,17.57
2023-06-04T05:35:00.185Z,17.62
2023-06-04T05:36:00.168Z,17.73
2023-06-04T05:37:00.130Z,17.78
2023-06-04T05:38:00.129Z,17.78
2023-06-04T05:39:00.148Z,17.76
2023-06-04T05:40:00.469Z,17.78
2023-06-04T05:41:00.084Z,17.88
2023-06-04T05:42:00.073Z,17.92
2023-06-04T05:43:08.114Z,17.95
2023-06-04T05:44:00.066Z,18.07
2023-06-04T05:45:00.041Z,18.27
2023-06-04T05:46:00.069Z,18.40
2023-06-04T05:47:00.015Z,18.46
2023-06-04T05:48:02.091Z,18.54
2023-06-04T05:49:00.008Z,18.72
2023-06-04T05:49:59.979Z,18.68
2023-06-04T05:50:59.967Z,18.74
2023-06-04T05:51:59.966Z,18.73
2023-06-04T05:52:59.973Z,18.68
2023-06-04T05:53:59.935Z,18.54
2023-06-04T05:54:59.921Z,18.52
2023-06-04T05:55:59.911Z,18.54
2023-06-04T05:56:59.899Z,18.57
2023-06-04T05:57:59.911Z,18.54
2023-06-04T05:58:59.879Z,18.62
2023-06-04T05:59:59.867Z,18.67
2023-06-04T06:00:59.873Z,18.55
2023-06-04T06:01:59.953Z,18.55
2023-06-04T06:02:59.940Z,18.54
2023-06-04T06:03:59.939Z,18.67
2023-06-04T06:04:59.815Z,18.70
2023-06-04T06:05:59.806Z,18.68
2023-06-04T06:06:59.817Z,18.54
2023-06-04T06:07:59.788Z,18.61
2023-06-04T06:08:59.766Z,18.58
2023-06-04T06:09:59.771Z,18.55
2023-06-04T06:10:59.746Z,18.70
2023-06-04T06:11:59.776Z,18.74
2023-06-04T06:12:59.731Z,18.73
2023-06-04T06:13:59.712Z,18.76
2023-06-04T06:14:59.717Z,18.68
2023-06-04T06:15:59.792Z,18.70
2023-06-04T06:16:59.696Z,18.68
2023-06-04T06:17:59.751Z,18.73
2023-06-04T06:18:59.663Z,18.92
2023-06-04T06:19:59.651Z,18.76
2023-06-04T06:20:59.673Z,18.58
2023-06-04T06:21:59.677Z,18.57
2023-06-04T06:22:59.612Z,18.59
2023-06-04T06:23:59.714Z,18.70
2023-06-04T06:24:59.592Z,18.74
2023-06-04T06:25:59.921Z,18.74
2023-06-04T06:26:59.569Z,18.86
2023-06-04T06:27:59.560Z,18.94
2023-06-04T06:28:59.557Z,18.94
2023-06-04T06:29:59.552Z,19.10
2023-06-04T06:30:59.606Z,19.20
2023-06-04T06:31:59.521Z,19.29
2023-06-04T06:32:59.544Z,19.40
2023-06-04T06:33:59.500Z,19.47
2023-06-04T06:34:59.503Z,19.47
2023-06-04T06:35:59.474Z,19.43
2023-06-04T06:36:59.464Z,19.55
2023-06-04T06:37:59.457Z,19.66
2023-06-04T06:38:59.448Z,19.79
2023-06-04T06:39:59.469Z,19.90
2023-06-04T06:40:59.428Z,19.98
2023-06-04T06:41:59.414Z,20.13
2023-06-04T06:42:59.396Z,20.16
2023-06-04T06:43:59.420Z,20.23
2023-06-04T06:44:59.418Z,20.24
2023-06-04T06:45:59.407Z,20.28
2023-06-04T06:46:59.413Z,20.35
2023-06-04T06:47:59.391Z,20.38
2023-06-04T06:48:59.348Z,20.41
2023-06-04T06:49:59.322Z,20.53
2023-06-04T06:50:59.312Z,20.41
2023-06-04T06:51:59.301Z,20.56
2023-06-04T06:52:59.293Z,20.76
2023-06-04T06:53:59.301Z,20.96
2023-06-04T06:54:59.269Z,21.32
2023-06-04T06:55:59.261Z,21.61
2023-06-04T06:56:59.252Z,21.79
2023-06-04T06:57:59.264Z,22.01
2023-06-04T06:58:59.261Z,22.22
2023-06-04T06:59:59.216Z,22.32
2023-06-04T07:00:59.294Z,22.64
2023-06-04T07:01:59.243Z,22.83
2023-06-04T07:02:59.414Z,23.02
2023-06-04T07:03:59.176Z,23.17
2023-06-04T07:04:59.159Z,23.39
2023-06-04T07:05:59.147Z,23.64
2023-06-04T07:06:59.137Z,23.80
2023-06-04T07:07:59.137Z,24.05
2023-06-04T07:08:59.113Z,24.29
2023-06-04T07:09:59.110Z,24.61
2023-06-04T07:10:59.093Z,24.77
2023-06-04T07:11:59.077Z,24.90
2023-06-04T07:12:59.085Z,25.09
2023-06-04T07:13:59.056Z,25.30
2023-06-04T07:14:59.051Z,25.37
2023-06-04T07:15:59.035Z,25.54
2023-06-04T07:16:59.078Z,25.77
2023-06-04T07:17:59.082Z,25.97
2023-06-04T07:18:59.003Z,26.04
2023-06-04T07:19:58.997Z,25.97
2023-06-04T07:20:58.982Z,26.04
2023-06-04T07:21:59.001Z,25.94
2023-06-04T07:22:58.959Z,25.93
2023-06-04T07:23:58.958Z,26.06
2023-06-04T07:24:58.940Z,26.02
2023-06-04T07:25:58.934Z,26.12
2023-06-04T07:26:58.928Z,26.44
2023-06-04T07:27:58.913Z,26.61
2023-06-04T07:28:58.907Z,26.67
2023-06-04T07:29:58.903Z,26.92
2023-06-04T07:30:58.906Z,26.94
2023-06-04T07:31:58.897Z,27.02
2023-06-04T07:32:58.878Z,27.20
2023-06-04T07:33:58.845Z,27.11
2023-06-04T07:34:58.840Z,27.21
2023-06-04T07:35:58.833Z,27.26
2023-06-04T07:36:58.829Z,27.21
2023-06-04T07:37:58.801Z,27.16
2023-06-04T07:38:58.791Z,27.32
2023-06-04T07:39:58.793Z,27.67
2023-06-04T07:40:58.782Z,27.70
2023-06-04T07:41:58.757Z,27.53
2023-06-04T07:42:58.749Z,27.50
2023-06-04T07:43:58.757Z,27.53
2023-06-04T07:44:58.730Z,27.57
2023-06-04T07:45:58.820Z,27.53
2023-06-04T07:46:58.749Z,27.35
2023-06-04T07:47:58.731Z,27.31
2023-06-04T07:48:58.688Z,27.38
2023-06-04T07:50:03.277Z,27.47
2023-06-04T07:50:59.677Z,27.62
2023-06-04T07:51:58.657Z,27.92
2023-06-04T07:52:58.645Z,28.10
2023-06-04T07:53:58.648Z,28.22
2023-06-04T07:54:58.637Z,28.31
2023-06-04T07:55:58.642Z,28.59
2023-06-04T07:56:58.615Z,28.73
2023-06-04T07:57:58.601Z,28.70
2023-06-04T07:58:58.584Z,28.56
2023-06-04T07:59:58.607Z,28.28
2023-06-04T08:00:58.561Z,28.06
2023-06-04T08:01:58.554Z,28.06
2023-06-04T08:02:58.678Z,28.29
2023-06-04T08:03:58.601Z,28.26
2023-06-04T08:04:58.572Z,28.62
2023-06-04T08:05:58.508Z,28.68
2023-06-04T08:06:58.506Z,28.75
2023-06-04T08:07:58.488Z,28.51
2023-06-04T08:08:58.506Z,28.47
2023-06-04T08:09:58.469Z,28.59
2023-06-04T08:10:58.464Z,28.47
2023-06-04T08:11:58.449Z,28.56
2023-06-04T08:12:58.438Z,28.56
2023-06-04T08:13:58.439Z,28.50
2023-06-04T08:14:58.432Z,28.54
2023-06-04T08:15:58.440Z,28.50
2023-06-04T08:16:58.396Z,28.41
2023-06-04T08:17:58.431Z,28.21
2023-06-04T08:18:58.418Z,28.04
2023-06-04T08:19:58.369Z,28.03
2023-06-04T08:20:58.360Z,28.31
2023-06-04T08:21:58.354Z,28.70
2023-06-04T08:22:58.359Z,28.95
2023-06-04T08:23:58.400Z,29.10
2023-06-04T08:24:58.322Z,29.35
2023-06-04T08:25:58.300Z,29.52
2023-06-04T08:26:58.294Z,29.53
2023-06-04T08:27:58.310Z,29.53
2023-06-04T08:28:58.278Z,29.60
2023-06-04T08:29:58.260Z,29.68
2023-06-04T08:30:58.254Z,29.82
2023-06-04T08:31:58.376Z,29.90
2023-06-04T08:32:58.345Z,30.05
2023-06-04T08:33:58.259Z,30.03
2023-06-04T08:34:58.239Z,30.03
2023-06-04T08:35:58.200Z,30.03
2023-06-04T08:36:58.194Z,29.82
2023-06-04T08:37:58.192Z,29.59
2023-06-04T08:38:58.169Z,29.53
2023-06-04T08:39:58.160Z,29.33
2023-06-04T08:40:58.149Z,29.38
2023-06-04T08:41:58.137Z,29.37
2023-06-04T08:42:58.138Z,29.23
2023-06-04T08:44:00.872Z,29.04
2023-06-04T08:44:58.178Z,28.93
2023-06-04T08:45:58.104Z,28.85
2023-06-04T08:46:58.104Z,28.93
2023-06-04T08:47:58.137Z,28.60
2023-06-04T08:49:00.893Z,28.72
2023-06-04T08:49:58.058Z,28.68
2023-06-04T08:50:58.054Z,28.56
2023-06-04T08:51:58.072Z,28.50
2023-06-04T08:52:58.132Z,28.50
2023-06-04T08:53:58.020Z,28.72
2023-06-04T08:54:58.010Z,28.85
2023-06-04T08:55:58.031Z,29.06
2023-06-04T08:56:58.032Z,29.03
2023-06-04T08:57:57.978Z,29.13
2023-06-04T08:58:57.976Z,29.29
2023-06-04T08:59:57.958Z,29.52
2023-06-04T09:00:58.010Z,29.53
2023-06-04T09:01:57.958Z,29.75
2023-06-04T09:02:58.021Z,29.99
2023-06-04T09:03:57.951Z,30.23
2023-06-04T09:04:57.909Z,30.43
2023-06-04T09:05:57.919Z,30.45
2023-06-04T09:06:57.887Z,30.34
2023-06-04T09:07:57.881Z,30.11
2023-06-04T09:08:58.479Z,29.66
2023-06-04T09:10:11.381Z,29.44
2023-06-04T09:10:58.876Z,29.55
2023-06-04T09:11:57.840Z,29.43
2023-06-04T09:12:57.861Z,29.23
2023-06-04T09:13:57.816Z,28.96
2023-06-04T09:14:57.865Z,29.07
2023-06-04T09:15:57.844Z,29.22
2023-06-04T09:16:57.805Z,29.11
2023-06-04T09:17:57.815Z,28.97
2023-06-04T09:18:57.777Z,29.01
2023-06-04T09:19:58.028Z,29.18
2023-06-04T09:20:57.755Z,29.00
2023-06-04T09:21:57.763Z,28.87
2023-06-04T09:22:57.729Z,28.78
2023-06-04T09:23:57.734Z,28.69
2023-06-04T09:24:57.722Z,28.69
2023-06-04T09:25:57.700Z,28.78
2023-06-04T09:26:57.689Z,28.96
2023-06-04T09:27:57.690Z,28.93
2023-06-04T09:28:57.700Z,28.85
2023-06-04T09:29:57.653Z,28.93
2023-06-04T09:30:57.697Z,29.11
2023-06-04T09:31:57.640Z,29.06
2023-06-04T09:32:57.660Z,28.88
2023-06-04T09:33:57.743Z,28.82
2023-06-04T09:34:57.635Z,28.93
2023-06-04T09:35:57.594Z,29.23
2023-06-04T09:36:57.612Z,29.47
2023-06-04T09:37:57.683Z,29.60
2023-06-04T09:38:57.597Z,29.53
2023-06-04T09:39:57.643Z,29.84
2023-06-04T09:40:57.545Z,30.14
2023-06-04T09:41:57.536Z,30.21
2023-06-04T09:42:57.543Z,29.90
2023-06-04T09:43:57.546Z,29.65
2023-06-04T09:44:57.509Z,29.71
2023-06-04T09:45:57.495Z,29.97
2023-06-04T09:46:57.537Z,29.99
2023-06-04T09:47:57.536Z,29.97
2023-06-04T09:48:57.499Z,29.75
2023-06-04T09:49:57.455Z,29.84
2023-06-04T09:50:57.454Z,29.89
2023-06-04T09:51:57.446Z,29.70
2023-06-04T09:52:57.462Z,29.40
2023-06-04T09:53:57.424Z,29.26
2023-06-04T09:54:57.408Z,29.26
2023-06-04T09:55:57.395Z,29.50
2023-06-04T09:56:57.387Z,29.57
2023-06-04T09:57:57.394Z,29.53
2023-06-04T09:58:57.365Z,29.66
2023-06-04T09:59:57.355Z,29.81
2023-06-04T10:00:57.348Z,29.93
2023-06-04T10:01:57.393Z,30.19
2023-06-04T10:02:57.467Z,30.18
2023-06-04T10:03:57.363Z,29.84
2023-06-04T10:04:57.305Z,29.55
2023-06-04T10:05:57.291Z,29.33
2023-06-04T10:06:57.299Z,29.19
2023-06-04T10:07:57.273Z,29.50
2023-06-04T10:08:57.266Z,29.40
2023-06-04T10:09:57.253Z,29.59
2023-06-04T10:10:57.268Z,29.44
2023-06-04T10:11:57.268Z,29.57
2023-06-04T10:12:57.227Z,29.38
2023-06-04T10:13:57.212Z,29.28
2023-06-04T10:14:57.204Z,29.15
2023-06-04T10:15:57.273Z,29.23
2023-06-04T10:16:57.211Z,29.52
2023-06-04T10:17:57.216Z,29.49
2023-06-04T10:18:57.162Z,29.29
2023-06-04T10:19:57.150Z,29.40
2023-06-04T10:20:57.186Z,29.49
2023-06-04T10:21:57.159Z,29.26
2023-06-04T10:22:57.122Z,28.87
2023-06-04T10:23:57.169Z,28.66
2023-06-04T10:24:57.103Z,28.66
2023-06-04T10:25:57.143Z,28.69
2023-06-04T10:26:57.082Z,28.75
2023-06-04T10:27:57.079Z,28.70
2023-06-04T10:28:57.066Z,28.50
2023-06-04T10:29:57.055Z,28.10
2023-06-04T10:30:57.065Z,27.50
2023-06-04T10:31:57.158Z,26.95
2023-06-04T10:32:57.085Z,26.74
2023-06-04T10:33:57.018Z,26.52
2023-06-04T10:34:57.002Z,26.42
2023-06-04T10:35:57.021Z,26.25
2023-06-04T10:36:56.982Z,26.05
2023-06-04T10:37:56.971Z,26.05
2023-06-04T10:38:57.054Z,25.93
2023-06-04T10:39:56.968Z,25.91
2023-06-04T10:40:56.964Z,25.69
2023-06-04T10:41:56.933Z,25.53
2023-06-04T10:42:56.921Z,25.32
2023-06-04T10:43:56.912Z,25.27
2023-06-04T10:44:58.438Z,25.12
2023-06-04T10:45:56.897Z,25.09
2023-06-04T10:46:56.882Z,25.06
2023-06-04T10:47:56.942Z,24.98
2023-06-04T10:48:56.858Z,25.00
2023-06-04T10:49:56.858Z,24.87
2023-06-04T10:50:56.843Z,24.97
2023-06-04T10:51:56.826Z,25.02
2023-06-04T10:52:56.820Z,24.85
2023-06-04T10:53:56.802Z,25.07
2023-06-04T10:54:56.808Z,24.87
2023-06-04T10:55:56.785Z,24.88
2023-06-04T10:56:56.792Z,24.92
2023-06-04T10:57:56.767Z,24.76
2023-06-04T10:58:56.777Z,24.75
2023-06-04T10:59:56.756Z,24.63
2023-06-04T11:00:56.732Z,24.54
2023-06-04T11:01:56.786Z,24.53
2023-06-04T11:02:56.786Z,24.35
2023-06-04T11:03:56.824Z,24.41
2023-06-04T11:04:56.786Z,24.44
2023-06-04T11:05:56.676Z,24.44
2023-06-04T11:06:56.673Z,24.50
2023-06-04T11:07:56.676Z,24.53
2023-06-04T11:08:56.655Z,24.47
2023-06-04T11:09:56.638Z,24.56
2023-06-04T11:10:56.619Z,24.54
2023-06-04T11:11:56.611Z,24.50
2023-06-04T11:12:56.615Z,24.45
2023-06-04T11:13:56.604Z,24.34
2023-06-04T11:14:56.580Z,24.29
2023-06-04T11:15:56.623Z,24.47
2023-06-04T11:16:56.553Z,24.47
2023-06-04T11:17:56.658Z,24.42
2023-06-04T11:18:56.540Z,24.27
2023-06-04T11:19:57.065Z,24.22
2023-06-04T11:20:56.518Z,24.07
2023-06-04T11:21:56.505Z,24.19
2023-06-04T11:22:56.501Z,24.13
2023-06-04T11:23:56.543Z,24.02
2023-06-04T11:24:56.466Z,24.01
2023-06-04T11:25:56.457Z,24.05
2023-06-04T11:27:07.696Z,24.04
2023-06-04T11:27:57.456Z,24.08
2023-06-04T11:28:56.422Z,24.08
2023-06-04T11:29:56.411Z,24.02
2023-06-04T11:30:56.497Z,24.02
2023-06-04T11:31:56.492Z,24.00
2023-06-04T11:32:56.440Z,23.85
2023-06-04T11:33:56.370Z,23.86
2023-06-04T11:34:56.358Z,23.80
2023-06-04T11:35:56.371Z,23.75
2023-06-04T11:36:56.370Z,23.82
2023-06-04T11:37:56.322Z,23.86
2023-06-04T11:38:56.313Z,23.85
2023-06-04T11:39:56.322Z,23.86
2023-06-04T11:40:56.289Z,23.76
2023-06-04T11:41:56.291Z,23.72
2023-06-04T11:42:58.856Z,23.68
2023-06-04T11:43:56.301Z,23.67
2023-06-04T11:44:56.258Z,23.70
2023-06-04T11:45:56.290Z,23.75
2023-06-04T11:46:56.283Z,23.79
2023-06-04T11:47:56.351Z,23.76
2023-06-04T11:48:56.248Z,23.86
2023-06-04T11:49:56.198Z,23.82
2023-06-04T11:50:56.234Z,23.77
2023-06-04T11:51:56.170Z,23.77
2023-06-04T11:52:56.170Z,23.85
2023-06-04T11:53:56.217Z,23.85
2023-06-04T11:54:56.140Z,23.86
2023-06-04T11:55:56.136Z,23.83
2023-06-04T11:56:56.116Z,23.92
2023-06-04T11:57:56.114Z,23.82
2023-06-04T11:58:56.144Z,23.83
2023-06-04T11:59:56.107Z,23.85
2023-06-04T12:00:56.086Z,23.83
2023-06-04T12:01:56.075Z,23.95
2023-06-04T12:02:56.354Z,23.95
2023-06-04T12:03:56.033Z,24.05
2023-06-04T12:04:56.042Z,24.10
2023-06-04T12:05:56.055Z,24.02
2023-06-04T12:06:56.004Z,24.05
2023-06-04T12:07:55.987Z,24.08
2023-06-04T12:08:55.973Z,24.07
2023-06-04T12:09:55.994Z,23.98
2023-06-04T12:10:55.974Z,23.92
2023-06-04T12:11:55.942Z,24.01
2023-06-04T12:12:55.956Z,23.87
2023-06-04T12:13:55.922Z,24.00
2023-06-04T12:14:55.953Z,24.02
2023-06-04T12:15:55.919Z,24.01
2023-06-04T12:16:55.907Z,24.05
2023-06-04T12:17:55.924Z,24.05
2023-06-04T12:18:55.872Z,24.08
2023-06-04T12:19:55.862Z,24.07
2023-06-04T12:20:55.852Z,24.10
2023-06-04T12:21:55.838Z,24.04
2023-06-04T12:22:55.817Z,24.05
2023-06-04T12:23:55.863Z,24.10
2023-06-04T12:24:55.796Z,24.05
2023-06-04T12:25:55.790Z,24.10
2023-06-04T12:26:55.771Z,24.14
2023-06-04T12:27:55.761Z,24.23
2023-06-04T12:28:55.776Z,24.22
2023-06-04T12:29:55.741Z,24.16
2023-06-04T12:30:55.735Z,24.29
2023-06-04T12:31:55.719Z,24.17
2023-06-04T12:32:55.859Z,24.22
2023-06-04T12:33:55.730Z,24.19
2023-06-04T12:34:55.685Z,24.17
2023-06-04T12:35:55.671Z,24.13
2023-06-04T12:36:55.703Z,24.08
2023-06-04T12:37:55.660Z,24.01
2023-06-04T12:38:55.639Z,23.83
2023-06-04T12:39:55.630Z,23.75
2023-06-04T12:40:55.616Z,23.62
2023-06-04T12:41:55.609Z,23.67
2023-06-04T12:42:55.602Z,23.60
2023-06-04T12:43:55.585Z,23.79
2023-06-04T12:44:55.575Z,23.71
2023-06-04T12:45:55.562Z,23.77
2023-06-04T12:46:55.609Z,23.76
2023-06-04T12:47:55.643Z,23.75
2023-06-04T12:48:55.534Z,23.75
2023-06-04T12:49:55.549Z,23.83
2023-06-04T12:50:55.514Z,23.76
2023-06-04T12:51:55.522Z,23.65